Lesage, West Virginia
Current Conditions -  °F | °C
As of 5:51 AM on Saturday 25 Oct 2014 (Local Time) from KHTS Reporting Station
Clear Clear  
Wind Chill:   Ceiling: Unl
Heat Index:   Visibility: 10mi
Dew Point:   Wind: 7mph
Humidity: 93%   Direction: 190°S
Pressure: 30.04"   Gusts: NA
Location:  38.51°N, 82.3°W
Report Text: KHTS 250951Z 19006KT 10SM CLR 06/05 A3004 RMK AO2 SLP170 T00610050
Loading
Personal Weather Stations






























Interactive Weather Map
Tropical Storm Tracking
New forecast layout! Learn more

10-Day Weather Forecast

Advertisements
Track Severe Weather on mobile